createdAt,value
2022-10-04T00:01:03.424Z,10.68
2022-10-04T00:03:35.455Z,10.82
2022-10-04T00:06:02.094Z,10.71
2022-10-04T00:08:41.592Z,10.85
2022-10-04T00:11:16.733Z,10.79
2022-10-04T00:13:48.153Z,10.76
2022-10-04T00:16:24.266Z,10.78
2022-10-04T00:19:13.647Z,10.62
2022-10-04T00:21:55.564Z,10.65
2022-10-04T00:24:27.392Z,10.17
2022-10-04T00:27:09.733Z,10.53
2022-10-04T00:29:44.074Z,10.45
2022-10-04T00:32:25.145Z,10.07
2022-10-04T00:34:56.260Z,10.46
2022-10-04T00:37:57.447Z,10.50
2022-10-04T00:40:31.961Z,10.68
2022-10-04T00:43:05.409Z,10.61
2022-10-04T00:45:45.632Z,10.47
2022-10-04T00:48:35.017Z,10.82
2022-10-04T00:51:29.408Z,10.85
2022-10-04T00:54:25.391Z,10.88
2022-10-04T00:56:58.696Z,10.90
2022-10-04T00:59:33.301Z,10.80
2022-10-04T01:02:05.798Z,10.52
2022-10-04T01:05:01.853Z,10.64
2022-10-04T01:07:46.165Z,10.79
2022-10-04T01:10:46.391Z,10.68
2022-10-04T01:13:19.815Z,10.76
2022-10-04T01:15:59.992Z,10.75
2022-10-04T01:18:29.299Z,10.85
2022-10-04T01:21:20.571Z,6.50
2022-10-04T01:23:53.763Z,10.54
2022-10-04T01:26:31.483Z,10.59
2022-10-04T01:29:08.499Z,10.32
2022-10-04T01:31:41.902Z,10.73
2022-10-04T01:34:14.942Z,10.68
2022-10-04T01:36:41.386Z,10.81
2022-10-04T01:39:12.407Z,10.74
2022-10-04T01:41:54.875Z,10.53
2022-10-04T01:44:32.720Z,10.65
2022-10-04T01:47:08.293Z,10.69
2022-10-04T01:49:41.380Z,10.85
2022-10-04T01:52:41.071Z,10.57
2022-10-04T01:55:15.050Z,9.98
2022-10-04T01:57:52.009Z,10.07
2022-10-04T02:00:23.695Z,10.45
2022-10-04T02:03:00.498Z,10.59
2022-10-04T02:05:38.346Z,10.62
2022-10-04T02:08:11.227Z,10.79
2022-10-04T02:10:43.226Z,10.22
2022-10-04T02:13:17.373Z,10.79
2022-10-04T02:15:44.043Z,10.82
2022-10-04T02:18:11.611Z,10.79
2022-10-04T02:20:38.930Z,10.16
2022-10-04T02:23:07.195Z,10.70
2022-10-04T02:25:37.419Z,10.87
2022-10-04T02:28:12.667Z,10.75
2022-10-04T02:31:07.706Z,10.20
2022-10-04T02:33:39.537Z,9.67
2022-10-04T02:36:12.554Z,10.40
2022-10-04T02:39:03.107Z,10.42
2022-10-04T02:41:37.127Z,10.66
2022-10-04T02:44:21.924Z,10.56
2022-10-04T02:47:09.488Z,10.65
2022-10-04T02:49:46.076Z,10.72
2022-10-04T02:52:46.143Z,9.88
2022-10-04T02:55:31.131Z,10.15
2022-10-04T02:58:09.366Z,10.07
2022-10-04T03:00:51.108Z,10.34
2022-10-04T03:03:30.260Z,9.88
2022-10-04T03:06:08.416Z,9.57
2022-10-04T03:08:46.320Z,10.02
2022-10-04T03:11:22.539Z,9.73
2022-10-04T03:13:54.816Z,10.05
2022-10-04T03:16:25.408Z,9.11
2022-10-04T03:18:53.187Z,10.15
2022-10-04T03:21:24.402Z,10.31
2022-10-04T03:23:54.442Z,10.45
2022-10-04T03:26:35.774Z,10.10
2022-10-04T03:29:09.536Z,9.82
2022-10-04T03:31:43.803Z,10.29
2022-10-04T03:34:16.605Z,10.39
2022-10-04T03:36:48.630Z,10.59
2022-10-04T03:39:29.901Z,10.26
2022-10-04T03:42:16.987Z,10.29
2022-10-04T03:44:49.971Z,10.05
2022-10-04T03:47:30.069Z,9.97
2022-10-04T03:50:15.215Z,9.99
2022-10-04T03:52:53.258Z,10.38
2022-10-04T03:55:43.486Z,10.33
2022-10-04T03:58:11.918Z,10.41
2022-10-04T04:00:59.771Z,10.49
2022-10-04T04:03:28.424Z,10.06
2022-10-04T04:05:59.114Z,10.09
2022-10-04T04:08:34.567Z,10.28
2022-10-04T04:11:06.266Z,9.77
2022-10-04T04:13:56.218Z,9.96
2022-10-04T04:16:27.603Z,9.98
2022-10-04T04:19:01.231Z,9.85
2022-10-04T04:21:30.201Z,9.61
2022-10-04T04:24:07.679Z,9.56
2022-10-04T04:26:41.771Z,9.80
2022-10-04T04:29:18.458Z,9.57
2022-10-04T04:31:55.901Z,9.82
2022-10-04T04:34:29.317Z,9.62
2022-10-04T04:37:01.177Z,9.49
2022-10-04T04:39:36.555Z,9.78
2022-10-04T04:42:27.611Z,9.34
2022-10-04T04:45:03.738Z,10.20
2022-10-04T04:47:39.999Z,10.20
2022-10-04T04:50:15.703Z,10.20
2022-10-04T04:52:49.521Z,10.31
2022-10-04T04:55:25.489Z,10.41
2022-10-04T04:57:55.346Z,10.27
2022-10-04T05:00:27.531Z,9.80
2022-10-04T05:02:58.763Z,10.33
2022-10-04T05:05:32.901Z,10.32
2022-10-04T05:08:21.982Z,10.26
2022-10-04T05:11:09.035Z,10.42
2022-10-04T05:13:47.728Z,10.45
2022-10-04T05:16:21.652Z,10.14
2022-10-04T05:18:59.723Z,10.38
2022-10-04T05:21:31.747Z,10.10
2022-10-04T05:24:23.072Z,10.33
2022-10-04T05:26:55.469Z,10.44
2022-10-04T05:29:35.513Z,10.21
2022-10-04T05:32:33.493Z,10.07
2022-10-04T05:35:15.493Z,10.12
2022-10-04T05:38:13.945Z,10.27
2022-10-04T05:40:50.230Z,10.31
2022-10-04T05:43:24.625Z,10.43
2022-10-04T05:46:09.726Z,10.25
2022-10-04T05:48:45.119Z,10.03
2022-10-04T05:51:19.124Z,10.38
2022-10-04T05:53:49.602Z,10.11
2022-10-04T05:56:29.834Z,10.24
2022-10-04T05:59:40.816Z,9.87
2022-10-04T06:02:23.051Z,9.91
2022-10-04T06:05:17.317Z,10.13
2022-10-04T06:07:56.481Z,10.07
2022-10-04T06:11:00.468Z,9.99
2022-10-04T06:13:55.592Z,10.30
2022-10-04T06:16:40.414Z,10.19
2022-10-04T06:19:30.373Z,10.42
2022-10-04T06:22:25.941Z,10.02
2022-10-04T06:25:05.901Z,10.16
2022-10-04T06:27:43.482Z,10.42
2022-10-04T06:30:15.038Z,10.20
2022-10-04T06:33:01.394Z,10.63
2022-10-04T06:35:30.696Z,10.59
2022-10-04T06:38:21.640Z,10.02
2022-10-04T06:41:22.874Z,10.49
2022-10-04T06:44:14.816Z,10.44
2022-10-04T06:46:50.692Z,10.30
2022-10-04T06:49:32.275Z,9.54
2022-10-04T06:52:17.717Z,10.27
2022-10-04T06:55:23.312Z,10.47
2022-10-04T06:58:29.753Z,10.37
2022-10-04T07:01:15.580Z,10.46
2022-10-04T07:03:52.601Z,10.73
2022-10-04T07:06:27.450Z,10.62
2022-10-04T07:09:04.765Z,10.75
2022-10-04T07:11:45.267Z,10.86
2022-10-04T07:14:23.723Z,9.75
2022-10-04T07:17:02.643Z,10.69
2022-10-04T07:19:46.036Z,10.85
2022-10-04T07:22:30.497Z,11.00
2022-10-04T07:25:07.833Z,10.88
2022-10-04T07:27:47.588Z,11.07
2022-10-04T07:30:16.421Z,11.09
2022-10-04T07:32:50.967Z,10.90
2022-10-04T07:35:34.640Z,11.21
2022-10-04T07:38:06.067Z,11.30
2022-10-04T07:40:57.390Z,11.49
2022-10-04T07:43:30.553Z,11.19
2022-10-04T07:46:04.489Z,10.86
2022-10-04T07:48:39.699Z,9.81
2022-10-04T07:51:27.941Z,11.10
2022-10-04T07:54:12.571Z,11.67
2022-10-04T07:56:48.265Z,11.37
2022-10-04T07:59:45.821Z,10.92
2022-10-04T08:02:51.631Z,11.56
2022-10-04T08:05:37.945Z,11.74
2022-10-04T08:08:13.514Z,11.83
2022-10-04T08:11:02.599Z,11.67
2022-10-04T08:13:41.973Z,11.88
2022-10-04T08:16:36.753Z,11.85
2022-10-04T08:19:52.004Z,11.93
2022-10-04T08:22:50.128Z,12.33
2022-10-04T08:25:16.273Z,12.15
2022-10-04T08:28:09.926Z,12.46
2022-10-04T08:31:15.554Z,12.77
2022-10-04T08:34:04.221Z,12.52
2022-10-04T08:36:49.347Z,12.46
2022-10-04T08:39:41.064Z,11.74
2022-10-04T08:42:22.997Z,12.05
2022-10-04T08:44:52.194Z,12.35
2022-10-04T08:47:42.609Z,12.32
2022-10-04T08:50:43.118Z,12.52
2022-10-04T08:53:50.533Z,12.72
2022-10-04T08:56:48.737Z,12.43
2022-10-04T08:59:52.195Z,12.20
2022-10-04T09:02:34.104Z,12.32
2022-10-04T09:05:32.858Z,12.68
2022-10-04T09:08:05.268Z,13.02
2022-10-04T09:10:56.628Z,13.15
2022-10-04T09:13:41.221Z,13.45
2022-10-04T09:16:19.200Z,13.35
2022-10-04T09:18:52.605Z,13.83
2022-10-04T09:21:44.433Z,13.69
2022-10-04T09:24:49.063Z,13.93
2022-10-04T09:27:54.095Z,13.69
2022-10-04T09:31:03.748Z,14.24
2022-10-04T09:33:51.402Z,14.22
2022-10-04T09:36:37.302Z,14.05
2022-10-04T09:39:45.456Z,14.40
2022-10-04T09:42:54.043Z,14.82
2022-10-04T09:45:35.852Z,14.16
2022-10-04T09:48:17.535Z,15.02
2022-10-04T09:50:57.526Z,14.77
2022-10-04T09:53:52.262Z,15.40
2022-10-04T09:56:37.295Z,15.63
2022-10-04T09:59:17.789Z,15.30
2022-10-04T10:02:02.810Z,15.38
2022-10-04T10:04:47.840Z,15.84
2022-10-04T10:07:54.819Z,15.88
2022-10-04T10:11:16.417Z,16.11
2022-10-04T10:14:14.530Z,16.09
2022-10-04T10:16:50.465Z,16.12
2022-10-04T10:19:46.872Z,15.73
2022-10-04T10:22:31.632Z,16.02
2022-10-04T10:25:13.395Z,16.31
2022-10-04T10:28:02.165Z,16.59
2022-10-04T10:30:40.546Z,16.58
2022-10-04T10:33:19.915Z,16.04
2022-10-04T10:35:52.911Z,16.22
2022-10-04T10:38:41.936Z,15.67
2022-10-04T10:41:29.507Z,16.18
2022-10-04T10:44:19.162Z,16.93
2022-10-04T10:47:03.492Z,17.05
2022-10-04T10:49:54.007Z,16.83
2022-10-04T10:52:58.652Z,16.69
2022-10-04T10:55:47.521Z,16.58
2022-10-04T10:58:26.535Z,16.55
2022-10-04T11:01:18.485Z,16.61
2022-10-04T11:03:55.327Z,16.87
2022-10-04T11:07:15.701Z,16.87
2022-10-04T11:10:13.601Z,17.15
2022-10-04T11:13:06.319Z,17.40
2022-10-04T11:15:48.805Z,17.18
2022-10-04T11:18:48.575Z,17.46
2022-10-04T11:21:27.397Z,17.91
2022-10-04T11:24:05.816Z,17.86
2022-10-04T11:26:38.961Z,17.93
2022-10-04T11:29:26.556Z,18.20
2022-10-04T11:32:13.741Z,17.29
2022-10-04T11:35:08.392Z,17.50
2022-10-04T11:38:14.054Z,17.69
2022-10-04T11:40:52.896Z,17.53
2022-10-04T11:48:12.391Z,17.51
2022-10-04T11:51:18.823Z,18.43
2022-10-04T11:54:36.146Z,18.39
2022-10-04T11:57:52.193Z,18.85
2022-10-04T12:00:35.744Z,17.52
2022-10-04T12:03:37.320Z,18.46
2022-10-04T12:10:10.960Z,18.43
2022-10-04T12:13:00.519Z,18.93
2022-10-04T12:16:17.517Z,18.66
2022-10-04T12:19:29.574Z,18.82
2022-10-04T12:22:57.171Z,19.25
2022-10-04T12:26:15.742Z,19.06
2022-10-04T12:33:24.778Z,19.16
2022-10-04T12:36:24.566Z,18.98
2022-10-04T12:39:47.559Z,17.84
2022-10-04T12:42:52.470Z,19.40
2022-10-04T12:46:25.577Z,19.33
2022-10-04T12:49:32.449Z,18.95
2022-10-04T12:55:49.718Z,19.15
2022-10-04T12:59:10.262Z,19.02
2022-10-04T13:02:00.628Z,19.74
2022-10-04T13:05:05.094Z,19.94
2022-10-04T13:11:02.658Z,19.81
2022-10-04T13:14:44.468Z,19.89
2022-10-04T13:17:40.434Z,20.45
2022-10-04T13:20:41.966Z,20.32
2022-10-04T13:27:21.928Z,20.27
2022-10-04T13:30:31.884Z,20.24
2022-10-04T13:33:49.013Z,19.88
2022-10-04T13:37:08.278Z,20.16
2022-10-04T13:40:07.285Z,19.84
2022-10-04T13:46:55.890Z,19.96
2022-10-04T13:50:03.851Z,20.21
2022-10-04T13:53:53.216Z,19.72
2022-10-04T14:00:59.623Z,20.43
2022-10-04T14:04:05.520Z,20.24
2022-10-04T14:11:17.016Z,20.60
2022-10-04T14:15:14.673Z,20.15
2022-10-04T14:18:44.335Z,20.08
2022-10-04T14:21:54.946Z,19.68
2022-10-04T14:25:07.049Z,19.62
2022-10-04T14:28:22.977Z,19.21
2022-10-04T14:31:42.529Z,18.93
2022-10-04T14:35:06.502Z,19.04
2022-10-04T14:38:09.168Z,18.69
2022-10-04T14:41:39.306Z,18.55
2022-10-04T14:48:37.150Z,18.36
2022-10-04T14:51:57.896Z,18.21
2022-10-04T14:55:02.912Z,18.28
2022-10-04T14:58:09.383Z,18.18
2022-10-04T15:01:24.365Z,18.13
2022-10-04T15:05:06.257Z,18.10
2022-10-04T15:07:55.162Z,18.11
2022-10-04T15:10:39.413Z,17.92
2022-10-04T15:17:07.922Z,18.01
2022-10-04T15:20:30.654Z,18.04
2022-10-04T15:23:40.218Z,17.95
2022-10-04T15:26:27.566Z,17.89
2022-10-04T15:29:35.869Z,17.60
2022-10-04T15:32:50.452Z,17.82
2022-10-04T15:39:11.630Z,17.33
2022-10-04T15:42:08.900Z,15.01
2022-10-04T15:48:40.068Z,17.61
2022-10-04T15:51:40.710Z,17.67
2022-10-04T15:54:35.472Z,17.52
2022-10-04T15:57:37.953Z,17.40
2022-10-04T16:00:42.291Z,17.41
2022-10-04T16:03:33.842Z,17.45
2022-10-04T16:06:41.015Z,17.34
2022-10-04T16:10:07.725Z,17.36
2022-10-04T16:12:57.651Z,17.35
2022-10-04T16:15:53.106Z,17.22
2022-10-04T16:19:25.130Z,17.04
2022-10-04T16:22:10.269Z,17.12
2022-10-04T16:24:52.156Z,16.82
2022-10-04T16:28:15.553Z,17.07
2022-10-04T16:30:55.704Z,17.05
2022-10-04T16:33:43.794Z,16.71
2022-10-04T16:36:27.134Z,16.94
2022-10-04T16:39:29.030Z,16.82
2022-10-04T16:42:14.555Z,16.90
2022-10-04T16:45:13.532Z,16.94
2022-10-04T16:47:51.851Z,16.93
2022-10-04T16:51:02.491Z,17.01
2022-10-04T16:54:12.697Z,17.04
2022-10-04T16:57:00.280Z,17.01
2022-10-04T16:59:50.508Z,17.04
2022-10-04T17:02:40.420Z,16.91
2022-10-04T17:05:58.440Z,16.92
2022-10-04T17:09:17.744Z,16.93
2022-10-04T17:12:12.252Z,16.85
2022-10-04T17:14:50.469Z,16.61
2022-10-04T17:17:49.574Z,16.42
2022-10-04T17:20:45.875Z,16.47
2022-10-04T17:23:50.775Z,16.54
2022-10-04T17:26:44.132Z,16.50
2022-10-04T17:29:48.876Z,16.43
2022-10-04T17:32:33.309Z,16.50
2022-10-04T17:35:36.968Z,16.50
2022-10-04T17:38:21.225Z,16.48
2022-10-04T17:41:37.876Z,16.43
2022-10-04T17:44:32.969Z,16.37
2022-10-04T17:48:02.063Z,16.31
2022-10-04T17:51:04.793Z,16.27
2022-10-04T17:54:11.441Z,16.19
2022-10-04T17:56:58.414Z,16.01
2022-10-04T17:59:43.172Z,16.20
2022-10-04T18:02:23.786Z,15.63
2022-10-04T18:05:04.580Z,15.98
2022-10-04T18:07:45.034Z,15.86
2022-10-04T18:10:29.980Z,15.90
2022-10-04T18:13:36.207Z,15.42
2022-10-04T18:16:22.963Z,16.03
2022-10-04T18:18:56.022Z,15.98
2022-10-04T18:21:41.062Z,16.00
2022-10-04T18:24:27.119Z,15.92
2022-10-04T18:27:03.549Z,15.86
2022-10-04T18:29:54.706Z,15.08
2022-10-04T18:32:41.270Z,15.86
2022-10-04T18:38:32.331Z,15.75
2022-10-04T18:41:47.699Z,14.37
2022-10-04T18:44:23.829Z,15.68
2022-10-04T18:47:02.974Z,15.67
2022-10-04T18:49:51.867Z,15.70
2022-10-04T18:52:59.482Z,15.74
2022-10-04T18:59:27.079Z,15.59
2022-10-04T19:02:10.990Z,15.46
2022-10-04T19:04:48.936Z,15.32
2022-10-04T19:07:40.543Z,15.41
2022-10-04T19:10:50.848Z,11.50
2022-10-04T19:13:47.816Z,15.11
2022-10-04T19:16:20.607Z,15.31
2022-10-04T19:19:10.050Z,15.38
2022-10-04T19:22:06.032Z,15.18
2022-10-04T19:24:59.767Z,15.23
2022-10-04T19:27:53.869Z,15.07
2022-10-04T19:34:07.994Z,14.97
2022-10-04T19:37:21.684Z,14.84
2022-10-04T19:40:39.234Z,14.97
2022-10-04T19:43:34.863Z,14.92
2022-10-04T19:47:25.566Z,14.97
2022-10-04T19:49:45.816Z,14.51
2022-10-04T19:52:54.857Z,14.77
2022-10-04T19:56:08.056Z,14.86
2022-10-04T19:59:19.193Z,14.76
2022-10-04T20:02:19.061Z,14.82
2022-10-04T20:05:03.978Z,14.77
2022-10-04T20:07:55.232Z,14.74
2022-10-04T20:10:44.283Z,14.62
2022-10-04T20:13:39.690Z,14.63
2022-10-04T20:16:57.456Z,14.75
2022-10-04T20:19:34.171Z,14.45
2022-10-04T20:25:03.571Z,13.85
2022-10-04T20:27:58.386Z,14.37
2022-10-04T20:31:08.549Z,14.49
2022-10-04T20:33:58.915Z,14.46
2022-10-04T20:36:59.069Z,14.45
2022-10-04T20:39:45.838Z,14.41
2022-10-04T20:42:36.034Z,14.50
2022-10-04T20:45:20.757Z,14.45
2022-10-04T20:48:19.595Z,14.43
2022-10-04T20:50:52.899Z,14.28
2022-10-04T20:53:50.885Z,14.27
2022-10-04T20:56:25.226Z,14.39
2022-10-04T20:59:14.162Z,14.33
2022-10-04T21:01:52.174Z,14.25
2022-10-04T21:04:44.206Z,14.26
2022-10-04T21:07:30.664Z,14.36
2022-10-04T21:10:12.443Z,14.35
2022-10-04T21:12:44.118Z,14.31
2022-10-04T21:15:28.325Z,14.24
2022-10-04T21:18:09.418Z,14.23
2022-10-04T21:20:56.095Z,14.10
2022-10-04T21:23:31.764Z,13.87
2022-10-04T21:26:28.756Z,13.95
2022-10-04T21:29:06.880Z,13.57
2022-10-04T21:31:43.767Z,13.67
2022-10-04T21:37:18.132Z,13.38
2022-10-04T21:43:46.539Z,13.64
2022-10-04T21:46:17.801Z,13.71
2022-10-04T21:49:08.474Z,13.66
2022-10-04T21:51:48.766Z,13.74
2022-10-04T21:54:39.647Z,13.81
2022-10-04T21:57:29.807Z,13.62
2022-10-04T22:00:05.728Z,13.89
2022-10-04T22:02:55.661Z,13.90
2022-10-04T22:05:32.299Z,13.93
2022-10-04T22:08:00.918Z,13.83
2022-10-04T22:10:36.131Z,13.78
2022-10-04T22:13:07.786Z,13.84
2022-10-04T22:15:53.241Z,13.76
2022-10-04T22:18:25.517Z,13.68
2022-10-04T22:20:59.668Z,13.81
2022-10-04T22:23:45.433Z,13.58
2022-10-04T22:26:34.920Z,13.54
2022-10-04T22:29:08.503Z,13.46
2022-10-04T22:31:45.123Z,13.18
2022-10-04T22:34:19.403Z,13.35
2022-10-04T22:37:03.569Z,13.45
2022-10-04T22:39:44.852Z,13.52
2022-10-04T22:42:19.393Z,13.19
2022-10-04T22:44:52.420Z,11.71
2022-10-04T22:47:25.796Z,12.99
2022-10-04T22:50:03.182Z,13.23
2022-10-04T22:52:46.512Z,13.43
2022-10-04T22:55:28.238Z,13.42
2022-10-04T22:58:03.017Z,13.21
2022-10-04T23:00:40.665Z,13.45
2022-10-04T23:03:33.225Z,13.47
2022-10-04T23:06:04.085Z,13.15
2022-10-04T23:08:37.524Z,13.33
2022-10-04T23:11:07.666Z,13.35
2022-10-04T23:13:37.386Z,13.32
2022-10-04T23:16:34.006Z,13.51
2022-10-04T23:19:30.093Z,13.44
2022-10-04T23:25:34.847Z,13.45
2022-10-04T23:28:26.447Z,13.36
2022-10-04T23:31:17.832Z,12.83
2022-10-04T23:33:55.230Z,13.27
2022-10-04T23:36:32.209Z,13.51
2022-10-04T23:39:22.681Z,13.38
2022-10-04T23:42:09.557Z,12.78
2022-10-04T23:44:53.319Z,13.50
2022-10-04T23:47:33.099Z,13.34
2022-10-04T23:50:42.176Z,13.42
2022-10-04T23:53:35.892Z,13.07
2022-10-04T23:56:14.524Z,13.19
2022-10-04T23:58:44.623Z,13.26
